Terminal Aerodrome Forecast
Issued by NWS

Home | Current Version | Previous Version | Text Only | Print | Product List | Glossary On
Versions: 1 2 3 4 5 6 7 8 9 10 11 12 13 14 15 16 17
000
FTUS44 KBMX 271720
TAFEET
TAF
KEET 271720Z 2718/2818 18010G15KT P6SM BKN035
     FM271900 20009G18KT P6SM VCTS BKN035CB
      TEMPO 2721/2801 2SM TSRA BKN025CB OVC050
     FM280300 20006KT 4SM BR VCSH OVC025
     FM281400 22006KT P6SM BKN030=

USA.gov is the U.S. government's official web portal to all federal, state and local government web resources and services.